sensor_id;sensor_type;location;lat;lon;timestamp;P1;durP1;ratioP1;P2;durP2;ratioP2
51838;SDS011;37886;53.174;6.368;2024-03-22T00:00:21;23.17;;;13.45;;
51838;SDS011;37886;53.174;6.368;2024-03-22T00:02:47;24.50;;;13.60;;
51838;SDS011;37886;53.174;6.368;2024-03-22T00:05:12;24.38;;;13.90;;
51838;SDS011;37886;53.174;6.368;2024-03-22T00:07:38;31.85;;;14.70;;
51838;SDS011;37886;53.174;6.368;2024-03-22T00:10:05;27.10;;;14.43;;
51838;SDS011;37886;53.174;6.368;2024-03-22T00:12:31;27.00;;;13.88;;
51838;SDS011;37886;53.174;6.368;2024-03-22T00:14:57;23.88;;;13.25;;
51838;SDS011;37886;53.174;6.368;2024-03-22T00:17:23;28.10;;;14.55;;
51838;SDS011;37886;53.174;6.368;2024-03-22T00:19:48;26.17;;;13.93;;
51838;SDS011;37886;53.174;6.368;2024-03-22T00:22:14;28.17;;;14.77;;
51838;SDS011;37886;53.174;6.368;2024-03-22T00:24:40;28.08;;;13.98;;
51838;SDS011;37886;53.174;6.368;2024-03-22T00:27:06;28.20;;;14.35;;
51838;SDS011;37886;53.174;6.368;2024-03-22T00:29:32;25.75;;;13.80;;
51838;SDS011;37886;53.174;6.368;2024-03-22T00:31:58;29.42;;;13.77;;
51838;SDS011;37886;53.174;6.368;2024-03-22T00:34:23;27.15;;;14.18;;
51838;SDS011;37886;53.174;6.368;2024-03-22T00:36:49;29.80;;;14.70;;
51838;SDS011;37886;53.174;6.368;2024-03-22T00:39:16;28.33;;;14.13;;
51838;SDS011;37886;53.174;6.368;2024-03-22T00:41:42;28.38;;;14.70;;
51838;SDS011;37886;53.174;6.368;2024-03-22T00:44:08;29.05;;;14.95;;
51838;SDS011;37886;53.174;6.368;2024-03-22T00:46:33;29.80;;;14.35;;
51838;SDS011;37886;53.174;6.368;2024-03-22T00:49:00;34.38;;;16.27;;
51838;SDS011;37886;53.174;6.368;2024-03-22T00:51:26;31.23;;;15.35;;
51838;SDS011;37886;53.174;6.368;2024-03-22T00:53:52;33.45;;;15.88;;
51838;SDS011;37886;53.174;6.368;2024-03-22T00:56:18;32.20;;;15.80;;
51838;SDS011;37886;53.174;6.368;2024-03-22T00:58:43;35.53;;;15.80;;
51838;SDS011;37886;53.174;6.368;2024-03-22T01:01:09;33.03;;;16.70;;
51838;SDS011;37886;53.174;6.368;2024-03-22T01:03:35;34.88;;;16.60;;
51838;SDS011;37886;53.174;6.368;2024-03-22T01:06:01;34.70;;;16.80;;
51838;SDS011;37886;53.174;6.368;2024-03-22T01:08:27;32.80;;;16.63;;
51838;SDS011;37886;53.174;6.368;2024-03-22T01:10:52;38.70;;;18.25;;
51838;SDS011;37886;53.174;6.368;2024-03-22T01:13:18;36.17;;;16.40;;
51838;SDS011;37886;53.174;6.368;2024-03-22T01:15:44;34.50;;;16.95;;
51838;SDS011;37886;53.174;6.368;2024-03-22T01:18:11;40.08;;;18.65;;
51838;SDS011;37886;53.174;6.368;2024-03-22T01:20:37;40.40;;;18.38;;
51838;SDS011;37886;53.174;6.368;2024-03-22T01:23:03;39.50;;;19.00;;
51838;SDS011;37886;53.174;6.368;2024-03-22T01:25:29;39.53;;;18.60;;
51838;SDS011;37886;53.174;6.368;2024-03-22T01:27:55;45.22;;;19.27;;
51838;SDS011;37886;53.174;6.368;2024-03-22T01:30:21;41.53;;;19.23;;
51838;SDS011;37886;53.174;6.368;2024-03-22T01:32:47;42.33;;;19.33;;
51838;SDS011;37886;53.174;6.368;2024-03-22T01:35:13;45.95;;;20.10;;
51838;SDS011;37886;53.174;6.368;2024-03-22T01:37:39;43.20;;;19.73;;
51838;SDS011;37886;53.174;6.368;2024-03-22T01:40:05;44.63;;;20.63;;
51838;SDS011;37886;53.174;6.368;2024-03-22T01:42:31;42.53;;;19.67;;
51838;SDS011;37886;53.174;6.368;2024-03-22T01:44:57;46.20;;;19.75;;
51838;SDS011;37886;53.174;6.368;2024-03-22T01:47:22;46.65;;;20.10;;
51838;SDS011;37886;53.174;6.368;2024-03-22T01:49:49;52.22;;;21.10;;
51838;SDS011;37886;53.174;6.368;2024-03-22T01:52:17;53.15;;;21.65;;
51838;SDS011;37886;53.174;6.368;2024-03-22T01:54:43;48.63;;;21.25;;
51838;SDS011;37886;53.174;6.368;2024-03-22T01:57:08;50.05;;;20.85;;
51838;SDS011;37886;53.174;6.368;2024-03-22T01:59:35;52.17;;;21.13;;
51838;SDS011;37886;53.174;6.368;2024-03-22T02:02:00;54.20;;;22.65;;
51838;SDS011;37886;53.174;6.368;2024-03-22T02:04:28;48.95;;;21.48;;
51838;SDS011;37886;53.174;6.368;2024-03-22T02:06:53;53.15;;;21.52;;
51838;SDS011;37886;53.174;6.368;2024-03-22T02:09:19;55.22;;;22.67;;
51838;SDS011;37886;53.174;6.368;2024-03-22T02:11:46;56.35;;;21.35;;
51838;SDS011;37886;53.174;6.368;2024-03-22T02:14:12;53.30;;;21.60;;
51838;SDS011;37886;53.174;6.368;2024-03-22T02:16:39;55.35;;;22.80;;
51838;SDS011;37886;53.174;6.368;2024-03-22T02:19:06;53.58;;;22.13;;
51838;SDS011;37886;53.174;6.368;2024-03-22T02:21:32;53.78;;;22.02;;
51838;SDS011;37886;53.174;6.368;2024-03-22T02:23:58;53.13;;;20.95;;
51838;SDS011;37886;53.174;6.368;2024-03-22T02:26:23;60.40;;;23.25;;
51838;SDS011;37886;53.174;6.368;2024-03-22T02:28:49;64.25;;;24.05;;
51838;SDS011;37886;53.174;6.368;2024-03-22T02:31:15;57.15;;;22.23;;
51838;SDS011;37886;53.174;6.368;2024-03-22T02:33:40;59.63;;;22.42;;
51838;SDS011;37886;53.174;6.368;2024-03-22T02:36:06;61.92;;;22.98;;
51838;SDS011;37886;53.174;6.368;2024-03-22T02:38:32;64.57;;;24.27;;
51838;SDS011;37886;53.174;6.368;2024-03-22T02:40:57;58.33;;;22.35;;
51838;SDS011;37886;53.174;6.368;2024-03-22T02:43:23;55.38;;;23.52;;
51838;SDS011;37886;53.174;6.368;2024-03-22T02:45:49;57.90;;;24.48;;
51838;SDS011;37886;53.174;6.368;2024-03-22T02:48:15;64.10;;;23.17;;
51838;SDS011;37886;53.174;6.368;2024-03-22T02:50:40;60.92;;;22.42;;
51838;SDS011;37886;53.174;6.368;2024-03-22T02:53:06;58.65;;;22.83;;
51838;SDS011;37886;53.174;6.368;2024-03-22T02:55:41;68.82;;;24.70;;
51838;SDS011;37886;53.174;6.368;2024-03-22T02:58:07;74.68;;;24.65;;
51838;SDS011;37886;53.174;6.368;2024-03-22T03:00:37;62.33;;;23.85;;
51838;SDS011;37886;53.174;6.368;2024-03-22T03:03:04;65.53;;;24.75;;
51838;SDS011;37886;53.174;6.368;2024-03-22T03:05:30;71.18;;;24.33;;
51838;SDS011;37886;53.174;6.368;2024-03-22T03:07:56;63.95;;;24.58;;
51838;SDS011;37886;53.174;6.368;2024-03-22T03:10:21;60.90;;;23.45;;
51838;SDS011;37886;53.174;6.368;2024-03-22T03:12:47;63.97;;;24.25;;
51838;SDS011;37886;53.174;6.368;2024-03-22T03:15:13;68.40;;;24.55;;
51838;SDS011;37886;53.174;6.368;2024-03-22T03:17:39;65.35;;;24.15;;
51838;SDS011;37886;53.174;6.368;2024-03-22T03:20:04;59.25;;;23.90;;
51838;SDS011;37886;53.174;6.368;2024-03-22T03:22:33;72.75;;;25.50;;
51838;SDS011;37886;53.174;6.368;2024-03-22T03:24:59;72.07;;;26.20;;
51838;SDS011;37886;53.174;6.368;2024-03-22T03:27:25;68.50;;;24.77;;
51838;SDS011;37886;53.174;6.368;2024-03-22T03:29:51;72.30;;;23.63;;
51838;SDS011;37886;53.174;6.368;2024-03-22T03:32:16;77.25;;;23.90;;
51838;SDS011;37886;53.174;6.368;2024-03-22T03:34:42;73.05;;;24.42;;
51838;SDS011;37886;53.174;6.368;2024-03-22T03:37:07;67.32;;;25.00;;
51838;SDS011;37886;53.174;6.368;2024-03-22T03:39:33;59.78;;;23.13;;
51838;SDS011;37886;53.174;6.368;2024-03-22T03:41:59;68.85;;;24.13;;
51838;SDS011;37886;53.174;6.368;2024-03-22T03:44:24;72.72;;;25.13;;
51838;SDS011;37886;53.174;6.368;2024-03-22T03:46:50;65.38;;;23.92;;
51838;SDS011;37886;53.174;6.368;2024-03-22T03:49:16;70.72;;;24.08;;
51838;SDS011;37886;53.174;6.368;2024-03-22T03:51:41;70.95;;;24.45;;
51838;SDS011;37886;53.174;6.368;2024-03-22T03:54:07;74.20;;;24.70;;
51838;SDS011;37886;53.174;6.368;2024-03-22T03:56:32;69.07;;;23.70;;
51838;SDS011;37886;53.174;6.368;2024-03-22T03:58:58;68.70;;;22.80;;
51838;SDS011;37886;53.174;6.368;2024-03-22T04:01:24;68.32;;;23.90;;
51838;SDS011;37886;53.174;6.368;2024-03-22T04:03:49;64.25;;;22.98;;
51838;SDS011;37886;53.174;6.368;2024-03-22T04:06:15;64.65;;;23.08;;
51838;SDS011;37886;53.174;6.368;2024-03-22T04:08:41;72.55;;;23.45;;
51838;SDS011;37886;53.174;6.368;2024-03-22T04:11:07;66.38;;;22.85;;
51838;SDS011;37886;53.174;6.368;2024-03-22T04:13:32;66.82;;;22.90;;
51838;SDS011;37886;53.174;6.368;2024-03-22T04:15:59;63.47;;;20.90;;
51838;SDS011;37886;53.174;6.368;2024-03-22T04:18:24;73.07;;;23.23;;
51838;SDS011;37886;53.174;6.368;2024-03-22T04:20:54;70.30;;;23.48;;
51838;SDS011;37886;53.174;6.368;2024-03-22T04:23:21;70.13;;;23.83;;
51838;SDS011;37886;53.174;6.368;2024-03-22T04:25:59;64.00;;;22.90;;
51838;SDS011;37886;53.174;6.368;2024-03-22T04:28:26;73.68;;;23.80;;
51838;SDS011;37886;53.174;6.368;2024-03-22T04:33:24;63.85;;;23.17;;
51838;SDS011;37886;53.174;6.368;2024-03-22T04:35:49;68.82;;;22.52;;
51838;SDS011;37886;53.174;6.368;2024-03-22T04:38:15;66.95;;;22.98;;
51838;SDS011;37886;53.174;6.368;2024-03-22T04:40:41;60.72;;;19.48;;
51838;SDS011;37886;53.174;6.368;2024-03-22T04:43:07;61.10;;;22.10;;
51838;SDS011;37886;53.174;6.368;2024-03-22T04:45:33;51.08;;;18.48;;
51838;SDS011;37886;53.174;6.368;2024-03-22T04:47:59;60.00;;;19.85;;
51838;SDS011;37886;53.174;6.368;2024-03-22T04:52:55;60.83;;;20.13;;
51838;SDS011;37886;53.174;6.368;2024-03-22T04:55:21;59.33;;;20.15;;
51838;SDS011;37886;53.174;6.368;2024-03-22T04:57:46;64.35;;;21.10;;
51838;SDS011;37886;53.174;6.368;2024-03-22T05:00:12;57.15;;;20.15;;
51838;SDS011;37886;53.174;6.368;2024-03-22T05:02:38;59.63;;;19.23;;
51838;SDS011;37886;53.174;6.368;2024-03-22T05:05:05;64.85;;;21.63;;
51838;SDS011;37886;53.174;6.368;2024-03-22T05:07:31;56.25;;;19.85;;
51838;SDS011;37886;53.174;6.368;2024-03-22T05:09:56;53.78;;;18.55;;
51838;SDS011;37886;53.174;6.368;2024-03-22T05:12:22;62.17;;;20.30;;
51838;SDS011;37886;53.174;6.368;2024-03-22T05:14:47;62.88;;;20.38;;
51838;SDS011;37886;53.174;6.368;2024-03-22T05:17:13;53.25;;;16.65;;
51838;SDS011;37886;53.174;6.368;2024-03-22T05:19:39;54.60;;;18.95;;
51838;SDS011;37886;53.174;6.368;2024-03-22T05:22:04;54.83;;;17.27;;
51838;SDS011;37886;53.174;6.368;2024-03-22T05:24:31;55.22;;;18.40;;
51838;SDS011;37886;53.174;6.368;2024-03-22T05:26:57;65.57;;;19.65;;
51838;SDS011;37886;53.174;6.368;2024-03-22T05:29:23;52.55;;;17.92;;
51838;SDS011;37886;53.174;6.368;2024-03-22T05:31:49;62.95;;;18.70;;
51838;SDS011;37886;53.174;6.368;2024-03-22T05:34:16;63.67;;;18.88;;
51838;SDS011;37886;53.174;6.368;2024-03-22T05:36:42;49.30;;;16.13;;
51838;SDS011;37886;53.174;6.368;2024-03-22T05:39:09;56.47;;;17.95;;
51838;SDS011;37886;53.174;6.368;2024-03-22T05:41:37;58.35;;;17.58;;
51838;SDS011;37886;53.174;6.368;2024-03-22T05:44:03;61.35;;;19.33;;
51838;SDS011;37886;53.174;6.368;2024-03-22T05:46:30;58.22;;;18.77;;
51838;SDS011;37886;53.174;6.368;2024-03-22T05:48:56;60.42;;;17.63;;
51838;SDS011;37886;53.174;6.368;2024-03-22T05:51:23;54.72;;;17.45;;
51838;SDS011;37886;53.174;6.368;2024-03-22T05:53:49;57.42;;;16.77;;
51838;SDS011;37886;53.174;6.368;2024-03-22T05:56:15;49.45;;;16.70;;
51838;SDS011;37886;53.174;6.368;2024-03-22T05:58:41;39.72;;;13.68;;
51838;SDS011;37886;53.174;6.368;2024-03-22T06:01:07;51.28;;;16.80;;
51838;SDS011;37886;53.174;6.368;2024-03-22T06:03:32;59.63;;;16.25;;
51838;SDS011;37886;53.174;6.368;2024-03-22T06:05:59;46.38;;;14.60;;
51838;SDS011;37886;53.174;6.368;2024-03-22T06:08:25;50.08;;;14.75;;
51838;SDS011;37886;53.174;6.368;2024-03-22T06:10:52;49.00;;;13.68;;
51838;SDS011;37886;53.174;6.368;2024-03-22T06:13:19;56.15;;;14.02;;
51838;SDS011;37886;53.174;6.368;2024-03-22T06:15:47;41.63;;;13.85;;
51838;SDS011;37886;53.174;6.368;2024-03-22T06:18:14;54.03;;;13.60;;
51838;SDS011;37886;53.174;6.368;2024-03-22T06:20:40;51.95;;;13.73;;
51838;SDS011;37886;53.174;6.368;2024-03-22T06:23:06;46.83;;;12.48;;
51838;SDS011;37886;53.174;6.368;2024-03-22T06:25:35;36.50;;;11.93;;
51838;SDS011;37886;53.174;6.368;2024-03-22T06:28:01;38.40;;;11.73;;
51838;SDS011;37886;53.174;6.368;2024-03-22T06:30:27;39.40;;;12.00;;
51838;SDS011;37886;53.174;6.368;2024-03-22T06:32:53;47.15;;;12.45;;
51838;SDS011;37886;53.174;6.368;2024-03-22T06:35:20;39.85;;;11.30;;
51838;SDS011;37886;53.174;6.368;2024-03-22T06:37:46;45.40;;;11.05;;
51838;SDS011;37886;53.174;6.368;2024-03-22T06:40:11;42.42;;;12.10;;
51838;SDS011;37886;53.174;6.368;2024-03-22T06:42:37;39.75;;;11.52;;
51838;SDS011;37886;53.174;6.368;2024-03-22T06:45:03;48.28;;;11.95;;
51838;SDS011;37886;53.174;6.368;2024-03-22T06:47:29;41.10;;;10.65;;
51838;SDS011;37886;53.174;6.368;2024-03-22T06:49:55;40.70;;;11.85;;
51838;SDS011;37886;53.174;6.368;2024-03-22T06:52:20;45.53;;;10.75;;
51838;SDS011;37886;53.174;6.368;2024-03-22T06:54:46;41.15;;;11.00;;
51838;SDS011;37886;53.174;6.368;2024-03-22T06:57:12;41.35;;;11.50;;
51838;SDS011;37886;53.174;6.368;2024-03-22T06:59:38;35.65;;;10.50;;
51838;SDS011;37886;53.174;6.368;2024-03-22T07:02:03;47.17;;;11.23;;
51838;SDS011;37886;53.174;6.368;2024-03-22T07:04:29;46.15;;;12.10;;
51838;SDS011;37886;53.174;6.368;2024-03-22T07:06:55;46.83;;;12.05;;
51838;SDS011;37886;53.174;6.368;2024-03-22T07:09:20;42.13;;;10.75;;
51838;SDS011;37886;53.174;6.368;2024-03-22T07:11:46;42.58;;;11.32;;
51838;SDS011;37886;53.174;6.368;2024-03-22T07:14:12;42.55;;;11.52;;
51838;SDS011;37886;53.174;6.368;2024-03-22T07:16:38;44.88;;;11.52;;
51838;SDS011;37886;53.174;6.368;2024-03-22T07:19:04;36.08;;;10.35;;
51838;SDS011;37886;53.174;6.368;2024-03-22T07:21:30;35.28;;;11.00;;
51838;SDS011;37886;53.174;6.368;2024-03-22T07:23:56;42.28;;;11.05;;
51838;SDS011;37886;53.174;6.368;2024-03-22T07:26:22;34.95;;;10.73;;
51838;SDS011;37886;53.174;6.368;2024-03-22T07:28:48;50.25;;;12.00;;
51838;SDS011;37886;53.174;6.368;2024-03-22T07:31:13;48.67;;;11.40;;
51838;SDS011;37886;53.174;6.368;2024-03-22T07:33:39;42.80;;;11.32;;
51838;SDS011;37886;53.174;6.368;2024-03-22T07:36:05;42.90;;;11.50;;
51838;SDS011;37886;53.174;6.368;2024-03-22T07:38:31;40.22;;;11.55;;
51838;SDS011;37886;53.174;6.368;2024-03-22T07:40:57;47.00;;;11.82;;
51838;SDS011;37886;53.174;6.368;2024-03-22T07:43:23;35.50;;;10.77;;
51838;SDS011;37886;53.174;6.368;2024-03-22T07:45:51;43.22;;;12.18;;
51838;SDS011;37886;53.174;6.368;2024-03-22T07:48:17;33.65;;;9.38;;
51838;SDS011;37886;53.174;6.368;2024-03-22T07:50:43;34.47;;;11.15;;
51838;SDS011;37886;53.174;6.368;2024-03-22T07:53:08;40.95;;;11.18;;
51838;SDS011;37886;53.174;6.368;2024-03-22T07:55:34;40.53;;;10.55;;
51838;SDS011;37886;53.174;6.368;2024-03-22T07:58:00;43.20;;;11.50;;
51838;SDS011;37886;53.174;6.368;2024-03-22T08:00:26;48.38;;;11.50;;
51838;SDS011;37886;53.174;6.368;2024-03-22T08:02:51;41.50;;;12.13;;
51838;SDS011;37886;53.174;6.368;2024-03-22T08:05:17;42.58;;;11.50;;
51838;SDS011;37886;53.174;6.368;2024-03-22T08:07:43;39.63;;;10.90;;
51838;SDS011;37886;53.174;6.368;2024-03-22T08:10:09;35.47;;;11.27;;
51838;SDS011;37886;53.174;6.368;2024-03-22T08:12:35;33.60;;;10.82;;
51838;SDS011;37886;53.174;6.368;2024-03-22T08:15:00;37.58;;;10.63;;
51838;SDS011;37886;53.174;6.368;2024-03-22T08:17:26;28.67;;;9.20;;
51838;SDS011;37886;53.174;6.368;2024-03-22T08:19:52;32.63;;;8.95;;
51838;SDS011;37886;53.174;6.368;2024-03-22T08:22:18;26.85;;;8.60;;
51838;SDS011;37886;53.174;6.368;2024-03-22T08:24:43;33.92;;;9.30;;
51838;SDS011;37886;53.174;6.368;2024-03-22T08:27:09;29.17;;;8.45;;
51838;SDS011;37886;53.174;6.368;2024-03-22T08:29:35;25.88;;;8.52;;
51838;SDS011;37886;53.174;6.368;2024-03-22T08:32:01;26.65;;;7.80;;
51838;SDS011;37886;53.174;6.368;2024-03-22T08:34:29;22.58;;;7.45;;
51838;SDS011;37886;53.174;6.368;2024-03-22T08:36:55;24.90;;;6.75;;
51838;SDS011;37886;53.174;6.368;2024-03-22T08:39:21;20.83;;;6.30;;
51838;SDS011;37886;53.174;6.368;2024-03-22T08:41:46;22.98;;;6.97;;
51838;SDS011;37886;53.174;6.368;2024-03-22T08:44:13;25.00;;;7.00;;
51838;SDS011;37886;53.174;6.368;2024-03-22T08:46:38;20.23;;;6.90;;
51838;SDS011;37886;53.174;6.368;2024-03-22T08:49:04;16.98;;;6.40;;
51838;SDS011;37886;53.174;6.368;2024-03-22T08:51:30;17.15;;;6.10;;
51838;SDS011;37886;53.174;6.368;2024-03-22T08:53:55;19.40;;;5.75;;
51838;SDS011;37886;53.174;6.368;2024-03-22T08:56:21;16.30;;;5.82;;
51838;SDS011;37886;53.174;6.368;2024-03-22T08:58:47;18.58;;;5.65;;
51838;SDS011;37886;53.174;6.368;2024-03-22T09:01:12;16.70;;;5.90;;
51838;SDS011;37886;53.174;6.368;2024-03-22T09:03:38;16.13;;;5.72;;
51838;SDS011;37886;53.174;6.368;2024-03-22T09:06:04;16.30;;;5.97;;
51838;SDS011;37886;53.174;6.368;2024-03-22T09:08:30;11.73;;;5.15;;
51838;SDS011;37886;53.174;6.368;2024-03-22T09:10:56;16.20;;;5.07;;
51838;SDS011;37886;53.174;6.368;2024-03-22T09:13:22;15.43;;;5.53;;
51838;SDS011;37886;53.174;6.368;2024-03-22T09:15:47;14.75;;;5.18;;
51838;SDS011;37886;53.174;6.368;2024-03-22T09:18:14;14.27;;;5.53;;
51838;SDS011;37886;53.174;6.368;2024-03-22T09:20:39;15.35;;;5.50;;
51838;SDS011;37886;53.174;6.368;2024-03-22T09:23:05;13.20;;;5.40;;
51838;SDS011;37886;53.174;6.368;2024-03-22T09:25:31;17.25;;;5.78;;
51838;SDS011;37886;53.174;6.368;2024-03-22T09:27:56;14.70;;;5.97;;
51838;SDS011;37886;53.174;6.368;2024-03-22T09:30:22;12.32;;;5.65;;
51838;SDS011;37886;53.174;6.368;2024-03-22T09:32:48;13.43;;;5.85;;
51838;SDS011;37886;53.174;6.368;2024-03-22T09:35:13;15.40;;;5.53;;
51838;SDS011;37886;53.174;6.368;2024-03-22T09:37:42;15.00;;;6.25;;
51838;SDS011;37886;53.174;6.368;2024-03-22T09:40:09;12.55;;;5.68;;
51838;SDS011;37886;53.174;6.368;2024-03-22T09:42:37;11.32;;;5.43;;
51838;SDS011;37886;53.174;6.368;2024-03-22T09:45:09;13.55;;;5.28;;
51838;SDS011;37886;53.174;6.368;2024-03-22T09:47:36;16.20;;;6.22;;
51838;SDS011;37886;53.174;6.368;2024-03-22T09:50:03;20.52;;;5.95;;
51838;SDS011;37886;53.174;6.368;2024-03-22T09:52:32;14.32;;;5.35;;
51838;SDS011;37886;53.174;6.368;2024-03-22T09:54:58;14.15;;;5.70;;
51838;SDS011;37886;53.174;6.368;2024-03-22T09:57:24;10.45;;;5.20;;
51838;SDS011;37886;53.174;6.368;2024-03-22T09:59:51;10.68;;;4.85;;
51838;SDS011;37886;53.174;6.368;2024-03-22T10:02:16;14.65;;;4.70;;
51838;SDS011;37886;53.174;6.368;2024-03-22T10:04:43;10.23;;;4.47;;
51838;SDS011;37886;53.174;6.368;2024-03-22T10:07:09;12.40;;;4.85;;
51838;SDS011;37886;53.174;6.368;2024-03-22T10:09:35;11.98;;;4.35;;
51838;SDS011;37886;53.174;6.368;2024-03-22T10:12:02;14.20;;;4.65;;
51838;SDS011;37886;53.174;6.368;2024-03-22T10:14:29;8.90;;;4.00;;
51838;SDS011;37886;53.174;6.368;2024-03-22T10:16:56;8.27;;;3.60;;
51838;SDS011;37886;53.174;6.368;2024-03-22T10:19:22;6.85;;;3.30;;
51838;SDS011;37886;53.174;6.368;2024-03-22T10:22:01;10.77;;;3.75;;
51838;SDS011;37886;53.174;6.368;2024-03-22T10:24:33;8.48;;;3.22;;
51838;SDS011;37886;53.174;6.368;2024-03-22T10:26:58;8.68;;;3.45;;
51838;SDS011;37886;53.174;6.368;2024-03-22T10:29:24;8.73;;;3.03;;
51838;SDS011;37886;53.174;6.368;2024-03-22T10:31:54;6.85;;;2.90;;
51838;SDS011;37886;53.174;6.368;2024-03-22T10:34:21;9.05;;;2.75;;
51838;SDS011;37886;53.174;6.368;2024-03-22T10:36:47;9.25;;;2.85;;
51838;SDS011;37886;53.174;6.368;2024-03-22T10:39:15;6.68;;;2.47;;
51838;SDS011;37886;53.174;6.368;2024-03-22T10:41:43;10.05;;;2.80;;
51838;SDS011;37886;53.174;6.368;2024-03-22T10:44:13;10.20;;;2.78;;
51838;SDS011;37886;53.174;6.368;2024-03-22T10:46:46;5.68;;;2.47;;
51838;SDS011;37886;53.174;6.368;2024-03-22T10:49:16;8.13;;;2.80;;
51838;SDS011;37886;53.174;6.368;2024-03-22T10:51:44;10.23;;;2.45;;
51838;SDS011;37886;53.174;6.368;2024-03-22T10:54:14;12.60;;;2.38;;
51838;SDS011;37886;53.174;6.368;2024-03-22T10:56:44;11.23;;;2.78;;
51838;SDS011;37886;53.174;6.368;2024-03-22T10:59:13;7.45;;;2.67;;
51838;SDS011;37886;53.174;6.368;2024-03-22T11:01:48;8.35;;;2.53;;
51838;SDS011;37886;53.174;6.368;2024-03-22T11:04:19;6.07;;;2.40;;
51838;SDS011;37886;53.174;6.368;2024-03-22T11:06:48;8.95;;;2.05;;
51838;SDS011;37886;53.174;6.368;2024-03-22T11:09:20;8.32;;;2.22;;
51838;SDS011;37886;53.174;6.368;2024-03-22T11:11:47;6.07;;;1.63;;
51838;SDS011;37886;53.174;6.368;2024-03-22T11:14:12;5.00;;;1.85;;
51838;SDS011;37886;53.174;6.368;2024-03-22T11:16:38;3.15;;;1.20;;
51838;SDS011;37886;53.174;6.368;2024-03-22T11:19:07;7.38;;;1.70;;
51838;SDS011;37886;53.174;6.368;2024-03-22T11:21:33;4.65;;;1.40;;
51838;SDS011;37886;53.174;6.368;2024-03-22T11:24:01;7.10;;;1.40;;
51838;SDS011;37886;53.174;6.368;2024-03-22T11:26:27;3.47;;;1.00;;
51838;SDS011;37886;53.174;6.368;2024-03-22T11:28:53;2.72;;;0.90;;
51838;SDS011;37886;53.174;6.368;2024-03-22T11:31:18;6.70;;;1.55;;
51838;SDS011;37886;53.174;6.368;2024-03-22T11:33:52;4.32;;;1.15;;
51838;SDS011;37886;53.174;6.368;2024-03-22T11:36:19;5.68;;;1.10;;
51838;SDS011;37886;53.174;6.368;2024-03-22T11:38:45;7.00;;;1.27;;
51838;SDS011;37886;53.174;6.368;2024-03-22T11:41:14;4.47;;;1.20;;
51838;SDS011;37886;53.174;6.368;2024-03-22T11:43:44;2.67;;;1.00;;
51838;SDS011;37886;53.174;6.368;2024-03-22T11:46:12;2.60;;;1.25;;
51838;SDS011;37886;53.174;6.368;2024-03-22T11:48:42;7.50;;;1.33;;
51838;SDS011;37886;53.174;6.368;2024-03-22T11:51:09;3.30;;;1.10;;
51838;SDS011;37886;53.174;6.368;2024-03-22T11:53:35;7.57;;;1.52;;
51838;SDS011;37886;53.174;6.368;2024-03-22T11:56:02;3.88;;;1.17;;
51838;SDS011;37886;53.174;6.368;2024-03-22T11:58:29;4.38;;;1.38;;
51838;SDS011;37886;53.174;6.368;2024-03-22T12:00:56;9.73;;;1.65;;
51838;SDS011;37886;53.174;6.368;2024-03-22T12:03:22;4.22;;;1.50;;
51838;SDS011;37886;53.174;6.368;2024-03-22T12:05:48;5.95;;;1.40;;
51838;SDS011;37886;53.174;6.368;2024-03-22T12:08:16;6.13;;;1.70;;
51838;SDS011;37886;53.174;6.368;2024-03-22T12:10:45;7.50;;;1.77;;
51838;SDS011;37886;53.174;6.368;2024-03-22T12:13:10;8.23;;;1.73;;
51838;SDS011;37886;53.174;6.368;2024-03-22T12:15:36;5.05;;;2.03;;
51838;SDS011;37886;53.174;6.368;2024-03-22T12:18:02;6.70;;;1.85;;
51838;SDS011;37886;53.174;6.368;2024-03-22T12:20:28;8.23;;;1.90;;
51838;SDS011;37886;53.174;6.368;2024-03-22T12:22:54;5.18;;;1.70;;
51838;SDS011;37886;53.174;6.368;2024-03-22T12:25:20;10.73;;;2.42;;
51838;SDS011;37886;53.174;6.368;2024-03-22T12:27:46;6.97;;;1.88;;
51838;SDS011;37886;53.174;6.368;2024-03-22T12:30:12;9.65;;;2.00;;
51838;SDS011;37886;53.174;6.368;2024-03-22T12:32:38;11.38;;;1.90;;
51838;SDS011;37886;53.174;6.368;2024-03-22T12:35:04;14.85;;;2.10;;
51838;SDS011;37886;53.174;6.368;2024-03-22T12:37:30;13.32;;;2.20;;
51838;SDS011;37886;53.174;6.368;2024-03-22T12:39:55;11.00;;;2.17;;
51838;SDS011;37886;53.174;6.368;2024-03-22T12:42:21;10.32;;;1.83;;
51838;SDS011;37886;53.174;6.368;2024-03-22T12:44:48;11.38;;;2.10;;
51838;SDS011;37886;53.174;6.368;2024-03-22T12:47:13;18.83;;;2.70;;
51838;SDS011;37886;53.174;6.368;2024-03-22T12:49:39;18.55;;;2.35;;
51838;SDS011;37886;53.174;6.368;2024-03-22T12:52:05;13.38;;;1.75;;
51838;SDS011;37886;53.174;6.368;2024-03-22T12:54:32;11.68;;;1.70;;
51838;SDS011;37886;53.174;6.368;2024-03-22T12:56:57;12.90;;;2.13;;
51838;SDS011;37886;53.174;6.368;2024-03-22T12:59:23;15.65;;;2.50;;
51838;SDS011;37886;53.174;6.368;2024-03-22T13:01:49;18.40;;;2.78;;
51838;SDS011;37886;53.174;6.368;2024-03-22T13:04:14;17.25;;;2.28;;
51838;SDS011;37886;53.174;6.368;2024-03-22T13:06:40;19.13;;;2.92;;
51838;SDS011;37886;53.174;6.368;2024-03-22T13:09:06;19.50;;;2.83;;
51838;SDS011;37886;53.174;6.368;2024-03-22T13:11:34;14.57;;;2.17;;
51838;SDS011;37886;53.174;6.368;2024-03-22T13:14:00;22.73;;;3.05;;
51838;SDS011;37886;53.174;6.368;2024-03-22T13:16:26;19.42;;;2.88;;
51838;SDS011;37886;53.174;6.368;2024-03-22T13:18:52;20.00;;;2.78;;
51838;SDS011;37886;53.174;6.368;2024-03-22T13:21:18;19.08;;;2.35;;
51838;SDS011;37886;53.174;6.368;2024-03-22T13:23:44;16.05;;;2.65;;
51838;SDS011;37886;53.174;6.368;2024-03-22T13:26:10;20.10;;;3.42;;
51838;SDS011;37886;53.174;6.368;2024-03-22T13:28:36;14.00;;;2.70;;
51838;SDS011;37886;53.174;6.368;2024-03-22T13:31:02;19.00;;;2.80;;
51838;SDS011;37886;53.174;6.368;2024-03-22T13:33:31;15.48;;;2.47;;
51838;SDS011;37886;53.174;6.368;2024-03-22T13:35:58;18.02;;;2.95;;
51838;SDS011;37886;53.174;6.368;2024-03-22T13:38:24;22.27;;;2.75;;
51838;SDS011;37886;53.174;6.368;2024-03-22T13:40:58;19.38;;;2.45;;
51838;SDS011;37886;53.174;6.368;2024-03-22T13:43:27;21.38;;;3.10;;
51838;SDS011;37886;53.174;6.368;2024-03-22T13:45:53;13.50;;;2.17;;
51838;SDS011;37886;53.174;6.368;2024-03-22T13:48:20;15.50;;;2.63;;
51838;SDS011;37886;53.174;6.368;2024-03-22T13:50:53;26.65;;;2.70;;
51838;SDS011;37886;53.174;6.368;2024-03-22T13:53:19;15.57;;;1.63;;
51838;SDS011;37886;53.174;6.368;2024-03-22T13:55:51;9.35;;;1.42;;
51838;SDS011;37886;53.174;6.368;2024-03-22T13:58:19;17.42;;;1.63;;
51838;SDS011;37886;53.174;6.368;2024-03-22T14:00:45;18.08;;;2.50;;
51838;SDS011;37886;53.174;6.368;2024-03-22T14:03:12;25.13;;;2.00;;
51838;SDS011;37886;53.174;6.368;2024-03-22T14:05:38;16.80;;;2.40;;
51838;SDS011;37886;53.174;6.368;2024-03-22T14:08:04;21.77;;;2.58;;
51838;SDS011;37886;53.174;6.368;2024-03-22T14:10:30;16.90;;;1.95;;
51838;SDS011;37886;53.174;6.368;2024-03-22T14:12:59;17.45;;;2.17;;
51838;SDS011;37886;53.174;6.368;2024-03-22T14:15:25;20.35;;;2.05;;
51838;SDS011;37886;53.174;6.368;2024-03-22T14:17:51;21.10;;;2.53;;
51838;SDS011;37886;53.174;6.368;2024-03-22T14:20:17;23.27;;;2.85;;
51838;SDS011;37886;53.174;6.368;2024-03-22T14:22:43;24.83;;;2.58;;
51838;SDS011;37886;53.174;6.368;2024-03-22T14:25:09;25.80;;;3.03;;
51838;SDS011;37886;53.174;6.368;2024-03-22T14:27:35;21.27;;;3.10;;